Terminal Aerodrome Forecast
Issued by NWS Louisville, KY

Home | Current Version | Previous Version | Text Only | Print | Product List | Glossary On
Versions: 1 2 3 4 5 6 7 8 9 10 11 12 13 14 15 16 17
705
FTUS43 KLMK 080532
TAFBWG
TAF
KBWG 080532Z 0806/0906 26005KT P6SM VCSH BKN070
     FM081600 28011G17KT 6SM -RASN BR OVC030
     FM082100 29012G19KT 5SM -SN BR OVC025
     FM090100 29012KT 6SM BR VCSH OVC025=

USA.gov is the U.S. government's official web portal to all federal, state and local government web resources and services.